Super Acor — CRA3927 — position and weather

sailwx.info

Track history (hours):
 
Tides and Currents Weather Stations Pressure Air Temp Water Temp Dewpoint Dewpoint Depression Visibility Wind Speed Wind Dir Waves Ship Positions

Super Acor

Last reported at 2018-May-06 16:24 UTC. Time now 2018-Jun-18 17:37 UTC.
Position N 38°41' W 009°12'.
Warning: this ship's position is 43 days out of date.

Length 12 m.

Type: Sailing vessel. MMSI: 263897750.

Date/timePositionNaut miles runAvg speedWind from/ knotsBaromVisibWave heightAir tempDewpointWater temp
2018-May-06 16:24N 38°41' W 009°12'0 1.1
2018-May-06 16:00N 38°41' W 009°12'1 1.1
2018-May-06 15:26N 38°41' W 009°13'1 2.3
2018-May-06 14:59N 38°41' W 009°12'1 1.9
2018-May-06 14:26N 38°41' W 009°13'1 1.0
2018-May-06 13:50N 38°42' W 009°12'0 0.0
2018-May-05 15:02N 38°42' W 009°12'0 0.6
2018-May-05 14:58N 38°42' W 009°12'2 4.9
2018-May-05 14:28N 38°41' W 009°15'1 1.7
2018-May-05 14:00N 38°42' W 009°15'0 0.1
2018-May-05 13:21N 38°42' W 009°15'0 1.0
2018-May-05 12:58N 38°41' W 009°14'1 2.9
2018-May-05 12:30N 38°42' W 009°16'1 1.4
2018-May-05 11:58N 38°42' W 009°15'1 1.7
2018-May-05 11:27N 38°42' W 009°16'1 1.7
2018-May-05 10:48N 38°42' W 009°15'1 2.9
2018-May-05 10:29N 38°42' W 009°16'1 2.6
2018-May-05 09:58N 38°41' W 009°14'  
Track history (hours):
 
Tides and Currents Weather Stations Pressure Air Temp Water Temp Dewpoint Dewpoint Depression Visibility Wind Speed Wind Dir Waves Ship Positions

Super Acor

Last reported at 2018-May-06 16:24 UTC. Time now 2018-Jun-18 17:37 UTC.
Position N 38°41' W 009°12'.
Warning: this ship's position is 43 days out of date.

Length 12 m.

Type: Sailing vessel. MMSI: 263897750.

Date/timePositionNaut miles runAvg speedWind from/ knotsBaromVisibWave heightAir tempDewpointWater temp
2018-May-06 16:24N 38°41' W 009°12'0 1.1
2018-May-06 16:00N 38°41' W 009°12'1 1.1
2018-May-06 15:26N 38°41' W 009°13'1 2.3
2018-May-06 14:59N 38°41' W 009°12'1 1.9
2018-May-06 14:26N 38°41' W 009°13'1 1.0
2018-May-06 13:50N 38°42' W 009°12'0 0.0
2018-May-05 15:02N 38°42' W 009°12'0 0.6
2018-May-05 14:58N 38°42' W 009°12'2 4.9
2018-May-05 14:28N 38°41' W 009°15'1 1.7
2018-May-05 14:00N 38°42' W 009°15'0 0.1
2018-May-05 13:21N 38°42' W 009°15'0 1.0
2018-May-05 12:58N 38°41' W 009°14'1 2.9
2018-May-05 12:30N 38°42' W 009°16'1 1.4
2018-May-05 11:58N 38°42' W 009°15'1 1.7
2018-May-05 11:27N 38°42' W 009°16'1 1.7
2018-May-05 10:48N 38°42' W 009°15'1 2.9
2018-May-05 10:29N 38°42' W 009°16'1 2.6
2018-May-05 09:58N 38°41' W 009°14'  

Dump ship's entire track history